createdAt,value
2022-12-16T00:01:16.029Z,78.39
2022-12-16T00:03:48.550Z,78.66
2022-12-16T00:06:15.994Z,78.58
2022-12-16T00:08:42.725Z,78.56
2022-12-16T00:11:10.225Z,78.46
2022-12-16T00:13:38.734Z,78.42
2022-12-16T00:16:07.170Z,78.34
2022-12-16T00:18:35.068Z,78.40
2022-12-16T00:21:02.541Z,78.43
2022-12-16T00:23:30.321Z,78.24
2022-12-16T00:25:57.185Z,78.37
2022-12-16T00:28:24.030Z,78.24
2022-12-16T00:30:53.190Z,78.19
2022-12-16T00:33:24.581Z,78.34
2022-12-16T00:35:52.612Z,78.17
2022-12-16T00:38:20.707Z,78.29
2022-12-16T00:40:47.269Z,78.22
2022-12-16T00:43:13.984Z,78.38
2022-12-16T00:45:40.712Z,78.68
2022-12-16T00:48:08.261Z,78.53
2022-12-16T00:50:35.597Z,78.71
2022-12-16T00:53:02.814Z,78.72
2022-12-16T00:55:29.380Z,78.76
2022-12-16T00:57:55.860Z,78.61
2022-12-16T01:00:23.776Z,78.82
2022-12-16T01:02:51.717Z,78.76
2022-12-16T01:05:21.916Z,79.04
2022-12-16T01:07:48.654Z,78.97
2022-12-16T01:10:15.439Z,78.70
2022-12-16T01:12:42.014Z,78.87
2022-12-16T01:15:10.929Z,79.01
2022-12-16T01:17:37.925Z,79.06
2022-12-16T01:20:04.853Z,79.07
2022-12-16T01:22:32.768Z,79.38
2022-12-16T01:25:00.651Z,79.42
2022-12-16T01:27:28.433Z,79.10
2022-12-16T01:29:55.472Z,79.05
2022-12-16T01:32:22.569Z,79.20
2022-12-16T01:34:55.126Z,79.08
2022-12-16T01:37:23.676Z,79.42
2022-12-16T01:39:50.658Z,79.37
2022-12-16T01:42:20.560Z,79.32
2022-12-16T01:44:51.924Z,79.45
2022-12-16T01:47:27.984Z,78.89
2022-12-16T01:50:00.428Z,79.11
2022-12-16T01:52:43.514Z,78.96
2022-12-16T01:55:16.065Z,79.17
2022-12-16T01:57:49.246Z,78.98
2022-12-16T02:00:16.951Z,78.66
2022-12-16T02:02:46.755Z,78.99
2022-12-16T02:05:21.889Z,79.00
2022-12-16T02:08:18.867Z,78.80
2022-12-16T02:10:45.959Z,79.04
2022-12-16T02:13:49.831Z,79.07
2022-12-16T02:16:26.334Z,79.22
2022-12-16T02:19:10.834Z,79.12
2022-12-16T02:21:53.701Z,79.08
2022-12-16T02:24:38.302Z,78.89
2022-12-16T02:27:26.990Z,78.90
2022-12-16T02:30:02.230Z,79.12
2022-12-16T02:32:40.717Z,78.93
2022-12-16T02:35:25.466Z,79.01
2022-12-16T02:38:26.219Z,78.76
2022-12-16T02:41:02.911Z,79.00
2022-12-16T02:43:53.571Z,78.99
2022-12-16T02:46:24.031Z,78.76
2022-12-16T02:48:50.739Z,78.75
2022-12-16T02:51:18.035Z,79.07
2022-12-16T02:53:46.801Z,78.83
2022-12-16T02:56:25.723Z,78.62
2022-12-16T02:58:57.926Z,78.67
2022-12-16T03:02:02.250Z,78.84
2022-12-16T03:04:43.421Z,78.62
2022-12-16T03:07:14.726Z,78.59
2022-12-16T03:09:43.943Z,78.43
2022-12-16T03:12:14.494Z,78.76
2022-12-16T03:14:45.346Z,78.81
2022-12-16T03:17:14.609Z,79.10
2022-12-16T03:19:46.215Z,79.03
2022-12-16T03:22:20.296Z,78.93
2022-12-16T03:24:47.281Z,78.76
2022-12-16T03:27:44.785Z,78.98
2022-12-16T03:30:22.260Z,78.93
2022-12-16T03:32:59.936Z,78.97
2022-12-16T03:35:49.683Z,78.70
2022-12-16T03:38:17.165Z,78.66
2022-12-16T03:40:44.775Z,78.74
2022-12-16T03:43:16.218Z,78.77
2022-12-16T03:45:46.026Z,78.70
2022-12-16T03:48:13.966Z,78.67
2022-12-16T03:50:41.027Z,78.55
2022-12-16T03:53:08.522Z,78.54
2022-12-16T03:55:35.254Z,78.60
2022-12-16T03:58:01.939Z,78.51
2022-12-16T04:00:28.486Z,78.57
2022-12-16T04:02:55.164Z,78.30
2022-12-16T04:05:22.346Z,78.58
2022-12-16T04:07:49.040Z,78.57
2022-12-16T04:10:15.682Z,78.62
2022-12-16T04:13:01.077Z,78.81
2022-12-16T04:15:46.424Z,78.55
2022-12-16T04:18:35.351Z,78.45
2022-12-16T04:21:21.665Z,78.54
2022-12-16T04:24:13.717Z,78.45
2022-12-16T04:26:58.366Z,78.46
2022-12-16T04:29:25.613Z,78.26
2022-12-16T04:31:52.444Z,78.48
2022-12-16T04:34:29.434Z,78.52
2022-12-16T04:37:19.375Z,77.91
2022-12-16T04:40:04.850Z,78.22
2022-12-16T04:42:50.658Z,78.40
2022-12-16T04:45:36.805Z,78.88
2022-12-16T04:48:22.202Z,78.85
2022-12-16T04:51:06.921Z,79.17
2022-12-16T04:53:51.769Z,79.31
2022-12-16T04:56:36.597Z,79.49
2022-12-16T04:59:21.461Z,79.13
2022-12-16T05:02:06.923Z,79.13
2022-12-16T05:04:52.453Z,78.95
2022-12-16T05:07:38.749Z,79.20
2022-12-16T05:10:25.081Z,78.81
2022-12-16T05:13:12.532Z,78.66
2022-12-16T05:15:58.584Z,78.80
2022-12-16T05:18:43.665Z,79.01
2022-12-16T05:21:28.798Z,78.80
2022-12-16T05:24:13.749Z,78.75
2022-12-16T05:26:58.540Z,78.69
2022-12-16T05:29:43.417Z,78.53
2022-12-16T05:32:28.317Z,78.72
2022-12-16T05:35:13.234Z,78.32
2022-12-16T05:37:58.114Z,78.41
2022-12-16T05:40:43.192Z,78.28
2022-12-16T05:43:28.110Z,78.41
2022-12-16T05:46:13.081Z,78.44
2022-12-16T05:48:58.324Z,78.33
2022-12-16T05:51:43.374Z,78.41
2022-12-16T05:54:28.368Z,78.19
2022-12-16T05:57:13.116Z,78.17
2022-12-16T05:59:58.132Z,78.29
2022-12-16T06:02:43.183Z,78.08
2022-12-16T06:05:28.480Z,78.04
2022-12-16T06:08:13.321Z,78.00
2022-12-16T06:10:58.389Z,78.07
2022-12-16T06:13:43.258Z,78.07
2022-12-16T06:16:28.686Z,78.14
2022-12-16T06:19:13.781Z,77.71
2022-12-16T06:21:58.775Z,77.88
2022-12-16T06:24:44.159Z,77.90
2022-12-16T06:27:28.950Z,78.11
2022-12-16T06:30:13.954Z,77.79
2022-12-16T06:33:00.933Z,78.01
2022-12-16T06:35:46.157Z,78.62
2022-12-16T06:38:31.173Z,79.73
2022-12-16T06:41:16.012Z,79.79
2022-12-16T06:44:00.987Z,79.84
2022-12-16T06:46:45.895Z,79.99
2022-12-16T06:49:30.835Z,79.84
2022-12-16T06:52:20.143Z,79.28
2022-12-16T06:55:04.975Z,79.03
2022-12-16T06:57:49.922Z,78.70
2022-12-16T07:00:35.331Z,78.28
2022-12-16T07:03:20.273Z,78.43
2022-12-16T07:06:05.306Z,78.24
2022-12-16T07:08:50.433Z,78.33
2022-12-16T07:11:35.470Z,78.06
2022-12-16T07:14:20.892Z,77.94
2022-12-16T07:17:05.808Z,78.18
2022-12-16T07:19:50.549Z,78.27
2022-12-16T07:22:35.540Z,78.42
2022-12-16T07:25:20.314Z,78.54
2022-12-16T07:28:10.727Z,78.39
2022-12-16T07:31:00.889Z,78.67
2022-12-16T07:33:45.691Z,79.22
2022-12-16T07:36:30.704Z,79.72
2022-12-16T07:39:15.603Z,79.59
2022-12-16T07:42:00.595Z,79.68
2022-12-16T07:44:45.568Z,79.47
2022-12-16T07:47:31.196Z,79.54
2022-12-16T07:50:16.415Z,79.38
2022-12-16T07:53:01.737Z,79.13
2022-12-16T07:55:46.565Z,79.27
2022-12-16T07:58:31.603Z,79.59
2022-12-16T08:01:16.479Z,80.00
2022-12-16T08:04:01.838Z,79.54
2022-12-16T08:06:47.164Z,79.64
2022-12-16T08:09:32.227Z,79.32
2022-12-16T08:12:17.223Z,78.97
2022-12-16T08:15:02.257Z,79.10
2022-12-16T08:17:47.220Z,78.83
2022-12-16T08:20:32.236Z,78.30
2022-12-16T08:23:17.056Z,78.48
2022-12-16T08:26:01.946Z,77.88
2022-12-16T08:28:46.909Z,78.27
2022-12-16T08:31:31.759Z,78.38
2022-12-16T08:34:16.678Z,78.55
2022-12-16T08:37:01.679Z,79.07
2022-12-16T08:39:51.352Z,78.99
2022-12-16T08:42:49.647Z,79.05
2022-12-16T08:45:35.354Z,79.39
2022-12-16T08:48:20.205Z,79.36
2022-12-16T08:51:05.628Z,79.32
2022-12-16T08:53:51.497Z,79.52
2022-12-16T08:56:36.474Z,79.48
2022-12-16T08:59:21.935Z,79.51
2022-12-16T09:02:07.396Z,79.42
2022-12-16T09:04:52.925Z,79.39
2022-12-16T09:07:40.627Z,79.43
2022-12-16T09:10:26.073Z,79.41
2022-12-16T09:13:11.005Z,79.30
2022-12-16T09:15:56.055Z,79.24
2022-12-16T09:18:41.758Z,79.02
2022-12-16T09:21:31.722Z,79.22
2022-12-16T09:24:18.096Z,79.33
2022-12-16T09:27:03.287Z,79.46
2022-12-16T09:29:48.018Z,79.21
2022-12-16T09:32:33.286Z,79.51
2022-12-16T09:35:18.278Z,79.25
2022-12-16T09:38:07.280Z,79.43
2022-12-16T09:40:52.268Z,79.43
2022-12-16T09:44:00.724Z,79.86
2022-12-16T09:47:14.116Z,80.11
2022-12-16T09:50:04.975Z,80.46
2022-12-16T09:53:01.454Z,80.17
2022-12-16T09:55:59.095Z,80.20
2022-12-16T09:58:49.312Z,80.20
2022-12-16T10:01:34.711Z,80.12
2022-12-16T10:04:20.081Z,80.70
2022-12-16T10:07:26.537Z,80.65
2022-12-16T10:10:26.202Z,80.92
2022-12-16T10:13:38.709Z,80.97
2022-12-16T10:17:02.294Z,80.98
2022-12-16T10:20:09.202Z,81.17
2022-12-16T10:23:32.509Z,81.54
2022-12-16T10:26:46.808Z,81.31
2022-12-16T10:29:38.234Z,81.46
2022-12-16T10:33:04.057Z,81.81
2022-12-16T10:36:04.146Z,81.76
2022-12-16T10:38:57.660Z,81.93
2022-12-16T10:41:46.759Z,81.81
2022-12-16T10:44:41.811Z,82.22
2022-12-16T10:47:32.176Z,82.09
2022-12-16T10:50:17.629Z,82.32
2022-12-16T10:53:24.031Z,82.09
2022-12-16T10:56:18.415Z,82.03
2022-12-16T10:59:05.699Z,82.41
2022-12-16T11:01:50.704Z,82.38
2022-12-16T11:04:55.934Z,82.29
2022-12-16T11:07:55.760Z,82.30
2022-12-16T11:10:49.830Z,82.39
2022-12-16T11:13:37.780Z,82.38
2022-12-16T11:16:28.443Z,82.51
2022-12-16T11:19:13.680Z,82.44
2022-12-16T11:21:59.359Z,82.32
2022-12-16T11:24:44.909Z,82.67
2022-12-16T11:27:44.040Z,82.65
2022-12-16T11:30:32.010Z,82.53
2022-12-16T11:33:44.129Z,82.59
2022-12-16T11:36:51.028Z,82.55
2022-12-16T11:39:40.615Z,82.83
2022-12-16T11:42:29.658Z,82.78
2022-12-16T11:45:19.672Z,83.43
2022-12-16T11:48:08.797Z,82.86
2022-12-16T11:50:59.037Z,83.21
2022-12-16T11:54:05.007Z,83.29
2022-12-16T11:57:00.102Z,83.24
2022-12-16T12:00:08.345Z,83.05
2022-12-16T12:03:01.433Z,83.44
2022-12-16T12:06:10.922Z,83.22
2022-12-16T12:09:16.388Z,83.24
2022-12-16T12:12:09.951Z,83.56
2022-12-16T12:15:02.422Z,83.42
2022-12-16T12:18:03.602Z,83.54
2022-12-16T12:20:55.863Z,83.56
2022-12-16T12:23:57.121Z,83.75
2022-12-16T12:26:51.698Z,83.88
2022-12-16T12:29:49.944Z,83.68
2022-12-16T12:32:44.556Z,83.80
2022-12-16T12:35:38.896Z,84.04
2022-12-16T12:38:30.415Z,84.09
2022-12-16T12:41:34.102Z,83.94
2022-12-16T12:44:48.551Z,83.85
2022-12-16T12:47:36.216Z,84.16
2022-12-16T12:50:31.735Z,84.12
2022-12-16T12:53:42.904Z,84.52
2022-12-16T12:56:35.435Z,84.20
2022-12-16T12:59:30.452Z,84.32
2022-12-16T13:02:17.341Z,84.42
2022-12-16T13:05:03.128Z,84.30
2022-12-16T13:07:50.654Z,84.71
2022-12-16T13:10:38.578Z,84.60
2022-12-16T13:13:36.876Z,85.23
2022-12-16T13:16:25.528Z,85.10
2022-12-16T13:19:48.545Z,84.93
2022-12-16T13:22:55.392Z,84.83
2022-12-16T13:26:11.858Z,84.82
2022-12-16T13:29:00.105Z,84.76
2022-12-16T13:31:47.740Z,85.08
2022-12-16T13:34:32.949Z,85.25
2022-12-16T13:37:26.984Z,85.57
2022-12-16T13:40:22.886Z,85.39
2022-12-16T13:43:10.644Z,85.61
2022-12-16T13:46:23.047Z,85.71
2022-12-16T13:49:08.825Z,86.08
2022-12-16T13:51:56.694Z,85.92
2022-12-16T13:55:03.079Z,86.09
2022-12-16T13:57:54.178Z,86.06
2022-12-16T14:00:44.316Z,86.29
2022-12-16T14:04:01.315Z,86.31
2022-12-16T14:06:49.121Z,86.58
2022-12-16T14:09:56.578Z,86.58
2022-12-16T14:13:08.578Z,86.63
2022-12-16T14:16:06.689Z,86.79
2022-12-16T14:19:01.182Z,86.78
2022-12-16T14:21:56.712Z,86.96
2022-12-16T14:24:46.536Z,87.23
2022-12-16T14:27:37.508Z,86.96
2022-12-16T14:30:38.825Z,87.13
2022-12-16T14:33:44.519Z,87.44
2022-12-16T14:36:57.748Z,87.54
2022-12-16T14:39:48.771Z,87.39
2022-12-16T14:42:47.835Z,87.88
2022-12-16T14:45:40.745Z,87.72
2022-12-16T14:48:57.415Z,87.69
2022-12-16T14:51:48.098Z,88.15
2022-12-16T14:54:42.307Z,88.28
2022-12-16T14:57:36.233Z,88.13
2022-12-16T15:00:27.378Z,88.03
2022-12-16T15:03:21.575Z,88.07
2022-12-16T15:06:09.243Z,88.24
2022-12-16T15:09:09.805Z,88.53
2022-12-16T15:11:55.663Z,88.65
2022-12-16T15:14:51.136Z,88.65
2022-12-16T15:17:40.628Z,88.87
2022-12-16T15:20:39.789Z,88.65
2022-12-16T15:23:38.414Z,88.73
2022-12-16T15:26:25.399Z,88.95
2022-12-16T15:29:10.786Z,88.90
2022-12-16T15:32:06.126Z,88.93
2022-12-16T15:35:07.965Z,88.99
2022-12-16T15:38:04.243Z,89.19
2022-12-16T15:40:52.304Z,89.16
2022-12-16T15:43:48.561Z,89.19
2022-12-16T15:46:36.494Z,89.51
2022-12-16T15:49:22.656Z,89.50
2022-12-16T15:52:09.892Z,89.24
2022-12-16T15:55:12.091Z,89.47
2022-12-16T15:57:58.046Z,89.23
2022-12-16T16:00:47.132Z,89.54
2022-12-16T16:03:39.666Z,89.60
2022-12-16T16:06:34.603Z,89.47
2022-12-16T16:09:20.073Z,89.53
2022-12-16T16:12:04.987Z,89.61
2022-12-16T16:14:49.877Z,89.44
2022-12-16T16:17:40.869Z,89.77
2022-12-16T16:20:32.854Z,89.58
2022-12-16T16:23:18.251Z,90.04
2022-12-16T16:26:05.269Z,90.31
2022-12-16T16:28:50.702Z,89.73
2022-12-16T16:31:36.083Z,89.71
2022-12-16T16:34:21.870Z,89.97
2022-12-16T16:37:12.383Z,89.69
2022-12-16T16:40:14.605Z,89.65
2022-12-16T16:42:59.633Z,89.94
2022-12-16T16:45:44.494Z,89.82
2022-12-16T16:48:33.002Z,90.05
2022-12-16T16:51:19.017Z,90.08
2022-12-16T16:54:04.421Z,90.34
2022-12-16T16:56:52.187Z,90.48
2022-12-16T16:59:42.722Z,90.57
2022-12-16T17:02:41.351Z,90.30
2022-12-16T17:05:31.184Z,90.19
2022-12-16T17:08:16.599Z,90.03
2022-12-16T17:11:02.635Z,90.31
2022-12-16T17:13:47.559Z,89.86
2022-12-16T17:16:34.149Z,90.44
2022-12-16T17:19:22.897Z,90.56
2022-12-16T17:22:08.491Z,90.26
2022-12-16T17:24:54.541Z,90.14
2022-12-16T17:27:43.258Z,90.66
2022-12-16T17:30:40.696Z,90.55
2022-12-16T17:33:28.558Z,90.59
2022-12-16T17:36:13.471Z,90.56
2022-12-16T17:39:00.844Z,90.99
2022-12-16T17:41:47.338Z,90.82
2022-12-16T17:44:33.189Z,90.91
2022-12-16T17:47:18.131Z,90.71
2022-12-16T17:50:03.653Z,90.83
2022-12-16T17:52:49.319Z,90.90
2022-12-16T17:55:34.874Z,90.96
2022-12-16T17:58:19.846Z,90.75
2022-12-16T18:01:04.781Z,90.98
2022-12-16T18:03:49.700Z,90.91
2022-12-16T18:06:34.958Z,90.71
2022-12-16T18:09:19.826Z,90.96
2022-12-16T18:12:04.903Z,90.81
2022-12-16T18:14:49.770Z,91.01
2022-12-16T18:17:35.136Z,91.19
2022-12-16T18:20:20.517Z,91.13
2022-12-16T18:23:05.683Z,91.11
2022-12-16T18:25:50.441Z,91.12
2022-12-16T18:28:35.745Z,91.17
2022-12-16T18:31:24.177Z,91.26
2022-12-16T18:34:09.574Z,90.79
2022-12-16T18:36:54.946Z,91.02
2022-12-16T18:39:39.925Z,90.91
2022-12-16T18:42:24.750Z,91.16
2022-12-16T18:45:09.738Z,90.90
2022-12-16T18:47:54.738Z,91.00
2022-12-16T18:50:39.730Z,90.96
2022-12-16T18:53:25.642Z,91.32
2022-12-16T18:56:25.756Z,90.93
2022-12-16T18:59:11.768Z,90.96
2022-12-16T19:01:57.305Z,91.17
2022-12-16T19:04:43.065Z,91.04
2022-12-16T19:07:31.707Z,91.35
2022-12-16T19:10:18.879Z,91.19
2022-12-16T19:13:03.654Z,91.13
2022-12-16T19:15:48.712Z,91.15
2022-12-16T19:18:33.912Z,91.13
2022-12-16T19:21:19.652Z,90.92
2022-12-16T19:24:07.174Z,90.95
2022-12-16T19:26:52.477Z,91.16
2022-12-16T19:29:41.770Z,91.13
2022-12-16T19:32:26.866Z,91.18
2022-12-16T19:35:12.072Z,91.15
2022-12-16T19:37:57.119Z,91.09
2022-12-16T19:40:42.203Z,91.31
2022-12-16T19:43:27.651Z,91.06
2022-12-16T19:46:14.316Z,91.07
2022-12-16T19:48:59.402Z,91.08
2022-12-16T19:51:45.014Z,90.78
2022-12-16T19:54:29.941Z,91.00
2022-12-16T19:57:22.388Z,91.00
2022-12-16T20:00:07.352Z,91.02
2022-12-16T20:02:52.469Z,91.10
2022-12-16T20:05:38.715Z,90.95
2022-12-16T20:08:23.709Z,90.99
2022-12-16T20:11:08.501Z,90.75
2022-12-16T20:13:56.000Z,90.95
2022-12-16T20:16:41.137Z,90.91
2022-12-16T20:19:25.982Z,90.70
2022-12-16T20:22:14.564Z,90.76
2022-12-16T20:25:01.717Z,90.81
2022-12-16T20:27:47.020Z,90.80
2022-12-16T20:30:32.010Z,90.69
2022-12-16T20:33:16.889Z,90.79
2022-12-16T20:36:01.936Z,90.46
2022-12-16T20:38:46.843Z,90.85
2022-12-16T20:41:31.749Z,90.83
2022-12-16T20:44:16.576Z,90.65
2022-12-16T20:47:01.490Z,90.78
2022-12-16T20:49:46.265Z,90.76
2022-12-16T20:52:31.368Z,90.73
2022-12-16T20:55:16.222Z,90.67
2022-12-16T20:58:01.447Z,90.78
2022-12-16T21:00:46.461Z,90.65
2022-12-16T21:03:31.718Z,90.80
2022-12-16T21:06:16.696Z,90.57
2022-12-16T21:09:01.687Z,90.64
2022-12-16T21:11:47.542Z,90.49
2022-12-16T21:14:32.472Z,90.57
2022-12-16T21:17:17.453Z,90.72
2022-12-16T21:20:02.354Z,90.60
2022-12-16T21:22:47.204Z,90.60
2022-12-16T21:25:32.703Z,90.85
2022-12-16T21:28:18.273Z,90.66
2022-12-16T21:31:03.203Z,90.70
2022-12-16T21:33:49.099Z,90.45
2022-12-16T21:36:34.342Z,90.78
2022-12-16T21:39:19.267Z,90.60
2022-12-16T21:42:04.575Z,90.41
2022-12-16T21:44:49.537Z,90.68
2022-12-16T21:47:34.458Z,90.72
2022-12-16T21:50:19.484Z,90.50
2022-12-16T21:53:06.921Z,90.74
2022-12-16T21:55:52.194Z,90.57
2022-12-16T21:58:37.578Z,90.51
2022-12-16T22:01:23.135Z,90.77
2022-12-16T22:04:08.430Z,90.61
2022-12-16T22:06:54.870Z,90.57
2022-12-16T22:09:40.227Z,90.49
2022-12-16T22:12:25.154Z,90.54
2022-12-16T22:15:10.122Z,90.65
2022-12-16T22:17:58.485Z,90.39
2022-12-16T22:20:44.713Z,90.17
2022-12-16T22:23:29.599Z,90.30
2022-12-16T22:26:18.554Z,90.67
2022-12-16T22:29:03.846Z,90.39
2022-12-16T22:31:48.810Z,90.42
2022-12-16T22:34:34.300Z,90.38
2022-12-16T22:37:33.020Z,90.49
2022-12-16T22:40:17.990Z,90.44
2022-12-16T22:43:02.987Z,90.13
2022-12-16T22:45:47.871Z,89.95
2022-12-16T22:48:34.639Z,90.07
2022-12-16T22:51:19.460Z,89.90
2022-12-16T22:54:07.408Z,90.08
2022-12-16T22:56:52.408Z,90.04
2022-12-16T22:59:41.244Z,89.89
2022-12-16T23:02:26.146Z,90.02
2022-12-16T23:05:11.150Z,89.70
2022-12-16T23:08:09.649Z,89.79
2022-12-16T23:10:54.583Z,89.72
2022-12-16T23:13:43.304Z,89.70
2022-12-16T23:16:28.701Z,89.88
2022-12-16T23:19:13.932Z,89.78
2022-12-16T23:21:58.862Z,89.56
2022-12-16T23:24:43.890Z,89.92
2022-12-16T23:27:28.637Z,89.96
2022-12-16T23:30:13.624Z,90.06
2022-12-16T23:32:58.571Z,90.23
2022-12-16T23:35:43.452Z,90.48
2022-12-16T23:38:48.651Z,90.08
2022-12-16T23:41:33.983Z,89.98
2022-12-16T23:44:19.292Z,89.99
2022-12-16T23:47:04.286Z,89.94
2022-12-16T23:49:49.264Z,89.91
2022-12-16T23:52:34.630Z,90.18
2022-12-16T23:55:19.451Z,90.08
2022-12-16T23:58:04.449Z,89.84
